createdAt,value
2023-02-01T00:01:23.245Z,94719.59
2023-02-01T00:03:50.056Z,94722.75
2023-02-01T00:06:16.752Z,94722.22
2023-02-01T00:08:43.604Z,94725.94
2023-02-01T00:11:12.730Z,94720.91
2023-02-01T00:13:42.181Z,94721.69
2023-02-01T00:16:11.709Z,94727.00
2023-02-01T00:18:38.796Z,94720.38
2023-02-01T00:21:05.966Z,94724.09
2023-02-01T00:23:36.688Z,94720.38
2023-02-01T00:26:06.039Z,94722.50
2023-02-01T00:28:33.598Z,94719.84
2023-02-01T00:31:03.015Z,94711.63
2023-02-01T00:33:31.271Z,94710.84
2023-02-01T00:36:02.754Z,94702.38
2023-02-01T00:38:30.080Z,94709.25
2023-02-01T00:41:11.939Z,94709.25
2023-02-01T00:43:39.940Z,94703.44
2023-02-01T00:46:06.675Z,94694.97
2023-02-01T00:48:33.377Z,94688.59
2023-02-01T00:51:12.539Z,94692.06
2023-02-01T00:53:40.573Z,94695.50
2023-02-01T00:56:07.602Z,94693.91
2023-02-01T00:58:34.882Z,94694.44
2023-02-01T01:01:07.903Z,94690.19
2023-02-01T01:03:37.920Z,94696.00
2023-02-01T01:06:08.811Z,94698.66
2023-02-01T01:08:36.038Z,94683.84
2023-02-01T01:11:08.322Z,94690.44
2023-02-01T01:13:35.520Z,94672.19
2023-02-01T01:16:05.144Z,94680.94
2023-02-01T01:18:33.158Z,94676.69
2023-02-01T01:21:00.528Z,94676.44
2023-02-01T01:23:28.329Z,94672.47
2023-02-01T01:25:55.133Z,94647.84
2023-02-01T01:28:21.858Z,94666.63
2023-02-01T01:30:48.559Z,94667.97
2023-02-01T01:33:15.193Z,94658.44
2023-02-01T01:35:43.052Z,94674.81
2023-02-01T01:38:12.314Z,94678.50
2023-02-01T01:40:39.871Z,94671.63
2023-02-01T01:43:15.132Z,94665.31
2023-02-01T01:45:42.385Z,94666.84
2023-02-01T01:48:12.863Z,94666.59
2023-02-01T01:50:45.435Z,94655.75
2023-02-01T01:53:14.952Z,94655.50
2023-02-01T01:55:44.969Z,94673.22
2023-02-01T01:58:18.530Z,94661.84
2023-02-01T02:00:46.398Z,94660.78
2023-02-01T02:03:20.441Z,94670.31
2023-02-01T02:05:50.194Z,94663.94
2023-02-01T02:08:18.183Z,94661.28
2023-02-01T02:11:03.024Z,94664.75
2023-02-01T02:13:43.216Z,94654.69
2023-02-01T02:16:28.571Z,94668.44
2023-02-01T02:19:23.361Z,94656.00
2023-02-01T02:22:15.823Z,94655.22
2023-02-01T02:25:11.661Z,94655.47
2023-02-01T02:28:06.172Z,94644.63
2023-02-01T02:30:35.761Z,94649.91
2023-02-01T02:33:36.676Z,94644.09
2023-02-01T02:36:09.543Z,94643.56
2023-02-01T02:39:02.064Z,94637.22
2023-02-01T02:41:52.735Z,94636.94
2023-02-01T02:44:51.746Z,94631.66
2023-02-01T02:47:34.808Z,94635.09
2023-02-01T02:50:44.299Z,94646.47
2023-02-01T02:53:44.645Z,94624.50
2023-02-01T02:56:32.657Z,94627.16
2023-02-01T02:59:19.288Z,94612.59
2023-02-01T03:02:05.049Z,94616.00
2023-02-01T03:04:31.665Z,94616.00
2023-02-01T03:06:58.435Z,94613.63
2023-02-01T03:09:34.336Z,94621.03
2023-02-01T03:12:28.666Z,94622.38
2023-02-01T03:15:03.829Z,94620.75
2023-02-01T03:17:36.621Z,94612.28
2023-02-01T03:20:04.806Z,94621.03
2023-02-01T03:22:35.091Z,94602.22
2023-02-01T03:25:11.533Z,94610.16
2023-02-01T03:27:46.712Z,94616.25
2023-02-01T03:30:22.304Z,94617.06
2023-02-01T03:33:01.811Z,94610.16
2023-02-01T03:35:40.841Z,94612.00
2023-02-01T03:38:19.566Z,94604.06
2023-02-01T03:40:49.618Z,94605.91
2023-02-01T03:43:19.928Z,94607.78
2023-02-01T03:45:58.522Z,94606.19
2023-02-01T03:48:28.536Z,94618.13
2023-02-01T03:50:59.470Z,94612.03
2023-02-01T03:53:27.737Z,94617.88
2023-02-01T03:55:56.470Z,94608.09
2023-02-01T03:58:24.743Z,94612.88
2023-02-01T04:00:59.533Z,94614.47
2023-02-01T04:03:28.745Z,94600.47
2023-02-01T04:05:55.901Z,94592.53
2023-02-01T04:08:26.117Z,94588.84
2023-02-01T04:10:52.767Z,94580.66
2023-02-01T04:13:19.461Z,94580.41
2023-02-01T04:15:50.713Z,94580.16
2023-02-01T04:18:17.583Z,94581.22
2023-02-01T04:20:45.295Z,94577.25
2023-02-01T04:23:11.976Z,94583.09
2023-02-01T04:25:38.585Z,94592.06
2023-02-01T04:28:05.885Z,94590.75
2023-02-01T04:30:32.620Z,94584.94
2023-02-01T04:32:59.311Z,94587.84
2023-02-01T04:35:26.141Z,94577.25
2023-02-01T04:37:52.808Z,94576.72
2023-02-01T04:40:19.601Z,94573.28
2023-02-01T04:42:46.290Z,94589.16
2023-02-01T04:45:12.962Z,94587.28
2023-02-01T04:47:40.188Z,94583.59
2023-02-01T04:50:08.672Z,94579.59
2023-02-01T04:52:35.345Z,94579.31
2023-02-01T04:55:03.934Z,94577.97
2023-02-01T04:57:30.602Z,94577.44
2023-02-01T04:59:57.295Z,94582.22
2023-02-01T05:02:23.961Z,94568.69
2023-02-01T05:04:51.557Z,94560.22
2023-02-01T05:07:19.070Z,94564.19
2023-02-01T05:09:45.679Z,94571.59
2023-02-01T05:12:30.870Z,94567.88
2023-02-01T05:14:57.485Z,94572.88
2023-02-01T05:17:24.124Z,94569.44
2023-02-01T05:19:50.787Z,94556.19
2023-02-01T05:22:17.486Z,94551.94
2023-02-01T05:24:44.211Z,94555.38
2023-02-01T05:27:10.989Z,94555.38
2023-02-01T05:29:37.651Z,94550.38
2023-02-01T05:32:20.765Z,94567.56
2023-02-01T05:34:48.577Z,94575.78
2023-02-01T05:37:15.325Z,94589.81
2023-02-01T05:39:41.990Z,94575.78
2023-02-01T05:42:08.668Z,94568.34
2023-02-01T05:44:35.276Z,94569.69
2023-02-01T05:47:01.923Z,94568.88
2023-02-01T05:49:28.637Z,94558.28
2023-02-01T05:51:55.312Z,94559.31
2023-02-01T05:54:21.992Z,94556.91
2023-02-01T05:56:48.625Z,94559.78
2023-02-01T05:59:15.283Z,94569.03
2023-02-01T06:01:41.916Z,94549.44
2023-02-01T06:04:08.715Z,94564.53
2023-02-01T06:06:35.555Z,94573.53
2023-02-01T06:09:02.197Z,94584.09
2023-02-01T06:11:33.073Z,94583.31
2023-02-01T06:14:00.311Z,94579.34
2023-02-01T06:16:27.569Z,94570.31
2023-02-01T06:18:54.979Z,94584.09
2023-02-01T06:21:25.181Z,94566.88
2023-02-01T06:23:53.000Z,94559.94
2023-02-01T06:26:20.237Z,94558.09
2023-02-01T06:28:47.203Z,94552.00
2023-02-01T06:31:14.185Z,94568.41
2023-02-01T06:33:41.612Z,94571.31
2023-02-01T06:36:10.909Z,94561.53
2023-02-01T06:38:37.654Z,94562.84
2023-02-01T06:41:04.961Z,94551.44
2023-02-01T06:43:33.695Z,94560.19
2023-02-01T06:46:02.690Z,94554.63
2023-02-01T06:48:29.376Z,94565.75
2023-02-01T06:50:56.182Z,94558.09
2023-02-01T06:53:23.082Z,94557.53
2023-02-01T06:56:09.912Z,94562.31
2023-02-01T06:58:37.060Z,94561.56
2023-02-01T07:01:08.501Z,94556.81
2023-02-01T07:03:35.541Z,94560.03
2023-02-01T07:06:02.286Z,94558.19
2023-02-01T07:08:30.201Z,94567.50
2023-02-01T07:10:57.379Z,94568.06
2023-02-01T07:13:24.062Z,94575.22
2023-02-01T07:15:50.761Z,94581.03
2023-02-01T07:18:17.536Z,94579.97
2023-02-01T07:20:44.198Z,94582.09
2023-02-01T07:23:11.798Z,94590.03
2023-02-01T07:25:38.462Z,94585.78
2023-02-01T07:28:05.098Z,94581.28
2023-02-01T07:30:31.898Z,94589.75
2023-02-01T07:33:02.139Z,94590.81
2023-02-01T07:35:30.074Z,94584.97
2023-02-01T07:37:59.135Z,94598.44
2023-02-01T07:40:29.785Z,94606.38
2023-02-01T07:42:56.806Z,94610.06
2023-02-01T07:45:24.171Z,94615.63
2023-02-01T07:47:53.386Z,94592.53
2023-02-01T07:50:20.333Z,94611.03
2023-02-01T07:52:47.009Z,94587.19
2023-02-01T07:55:13.659Z,94596.72
2023-02-01T07:57:40.298Z,94588.25
2023-02-01T08:00:26.023Z,94582.66
2023-02-01T08:02:52.759Z,94597.75
2023-02-01T08:05:19.371Z,94597.22
2023-02-01T08:07:49.862Z,94598.53
2023-02-01T08:10:17.263Z,94598.28
2023-02-01T08:12:44.602Z,94600.13
2023-02-01T08:15:11.595Z,94602.25
2023-02-01T08:17:38.349Z,94592.72
2023-02-01T08:20:05.524Z,94598.78
2023-02-01T08:22:33.528Z,94606.69
2023-02-01T08:25:02.330Z,94604.03
2023-02-01T08:27:29.561Z,94599.81
2023-02-01T08:29:56.359Z,94590.28
2023-02-01T08:32:23.026Z,94604.31
2023-02-01T08:34:49.670Z,94601.94
2023-02-01T08:37:16.400Z,94596.34
2023-02-01T08:39:47.647Z,94592.88
2023-02-01T08:42:32.860Z,94591.81
2023-02-01T08:44:59.481Z,94599.50
2023-02-01T08:47:26.179Z,94601.09
2023-02-01T08:49:54.302Z,94609.03
2023-02-01T08:52:21.102Z,94590.19
2023-02-01T08:54:47.740Z,94600.25
2023-02-01T08:57:14.440Z,94592.22
2023-02-01T08:59:41.223Z,94600.16
2023-02-01T09:02:13.059Z,94600.66
2023-02-01T09:04:39.745Z,94599.53
2023-02-01T09:07:06.406Z,94605.84
2023-02-01T09:09:33.067Z,94607.44
2023-02-01T09:11:59.733Z,94604.06
2023-02-01T09:14:26.465Z,94610.44
2023-02-01T09:16:53.088Z,94609.56
2023-02-01T09:19:26.392Z,94604.75
2023-02-01T09:21:53.518Z,94603.97
2023-02-01T09:24:20.221Z,94624.91
2023-02-01T09:26:47.377Z,94628.59
2023-02-01T09:29:14.188Z,94639.44
2023-02-01T09:31:44.161Z,94634.94
2023-02-01T09:34:13.657Z,94640.69
2023-02-01T09:36:40.309Z,94635.94
2023-02-01T09:39:06.945Z,94634.88
2023-02-01T09:41:41.158Z,94647.06
2023-02-01T09:44:54.986Z,94626.03
2023-02-01T09:47:24.772Z,94639.72
2023-02-01T09:50:17.942Z,94634.13
2023-02-01T09:52:49.730Z,94636.47
2023-02-01T09:55:42.252Z,94649.88
2023-02-01T09:58:24.970Z,94646.81
2023-02-01T10:00:57.456Z,94664.63
2023-02-01T10:03:28.773Z,94641.66
2023-02-01T10:06:24.122Z,94634.75
2023-02-01T10:08:53.930Z,94651.78
2023-02-01T10:11:50.931Z,94651.84
2023-02-01T10:14:47.842Z,94647.44
2023-02-01T10:17:37.662Z,94646.94
2023-02-01T10:20:11.311Z,94651.72
2023-02-01T10:23:05.268Z,94642.25
2023-02-01T10:26:00.339Z,94654.19
2023-02-01T10:28:27.118Z,94647.59
2023-02-01T10:30:58.378Z,94668.00
2023-02-01T10:33:28.674Z,94653.69
2023-02-01T10:36:03.775Z,94665.53
2023-02-01T10:38:32.956Z,94660.47
2023-02-01T10:41:05.172Z,94668.94
2023-02-01T10:43:32.629Z,94668.34
2023-02-01T10:45:59.302Z,94670.94
2023-02-01T10:48:26.128Z,94670.88
2023-02-01T10:50:59.808Z,94674.63
2023-02-01T10:53:40.689Z,94675.19
2023-02-01T10:56:12.039Z,94675.78
2023-02-01T10:58:47.757Z,94681.91
2023-02-01T11:01:36.586Z,94672.69
2023-02-01T11:04:06.472Z,94676.38
2023-02-01T11:06:40.838Z,94692.53
2023-02-01T11:09:07.449Z,94681.63
2023-02-01T11:11:52.985Z,94675.00
2023-02-01T11:14:20.937Z,94675.72
2023-02-01T11:17:13.861Z,94682.91
2023-02-01T11:19:45.697Z,94669.97
2023-02-01T11:22:14.132Z,94664.69
2023-02-01T11:24:45.740Z,94673.16
2023-02-01T11:27:27.111Z,94663.84
2023-02-01T11:30:00.303Z,94663.50
2023-02-01T11:32:27.922Z,94666.06
2023-02-01T11:35:00.533Z,94659.16
2023-02-01T11:37:44.162Z,94650.41
2023-02-01T11:40:16.725Z,94659.72
2023-02-01T11:42:58.414Z,94661.56
2023-02-01T11:45:26.562Z,94657.09
2023-02-01T11:47:54.211Z,94661.13
2023-02-01T11:50:31.081Z,94651.81
2023-02-01T11:53:31.656Z,94669.03
2023-02-01T11:56:20.255Z,94641.72
2023-02-01T11:59:20.211Z,94646.22
2023-02-01T12:02:11.771Z,94640.38
2023-02-01T12:05:19.705Z,94643.50
2023-02-01T12:08:13.199Z,94634.41
2023-02-01T12:10:45.722Z,94626.50
2023-02-01T12:13:48.199Z,94630.78
2023-02-01T12:17:02.502Z,94630.78
2023-02-01T12:19:29.904Z,94622.03
2023-02-01T12:22:05.735Z,94624.97
2023-02-01T12:24:45.454Z,94611.47
2023-02-01T12:27:37.121Z,94624.22
2023-02-01T12:30:16.336Z,94624.25
2023-02-01T12:33:22.918Z,94618.94
2023-02-01T12:35:49.530Z,94617.03
2023-02-01T12:38:29.796Z,94606.44
2023-02-01T12:41:02.506Z,94597.03
2023-02-01T12:43:50.388Z,94605.97
2023-02-01T12:46:32.849Z,94592.09
2023-02-01T12:49:26.576Z,94599.06
2023-02-01T12:52:00.128Z,94598.59
2023-02-01T12:54:39.600Z,94599.22
2023-02-01T12:57:13.745Z,94599.22
2023-02-01T13:00:06.623Z,94601.97
2023-02-01T13:02:50.577Z,94603.25
2023-02-01T13:05:20.383Z,94597.53
2023-02-01T13:08:08.845Z,94601.78
2023-02-01T13:10:37.784Z,94589.63
2023-02-01T13:13:29.728Z,94595.78
2023-02-01T13:16:08.341Z,94581.53
2023-02-01T13:18:40.891Z,94587.63
2023-02-01T13:21:28.166Z,94573.84
2023-02-01T13:23:54.961Z,94579.78
2023-02-01T13:26:21.692Z,94578.22
2023-02-01T13:28:52.949Z,94581.44
2023-02-01T13:31:46.159Z,94577.44
2023-02-01T13:34:43.774Z,94579.28
2023-02-01T13:37:44.019Z,94568.47
2023-02-01T13:40:18.653Z,94580.13
2023-02-01T13:42:55.456Z,94583.38
2023-02-01T13:45:27.377Z,94564.47
2023-02-01T13:47:58.817Z,94563.41
2023-02-01T13:50:35.073Z,94575.59
2023-02-01T13:53:06.449Z,94560.63
2023-02-01T13:55:38.880Z,94564.31
2023-02-01T13:58:11.431Z,94558.66
2023-02-01T14:00:40.424Z,94564.56
2023-02-01T14:03:07.015Z,94560.50
2023-02-01T14:05:35.337Z,94553.84
2023-02-01T14:08:08.802Z,94560.22
2023-02-01T14:10:56.947Z,94568.72
2023-02-01T14:13:37.187Z,94561.81
2023-02-01T14:16:03.929Z,94559.44
2023-02-01T14:18:42.126Z,94563.19
2023-02-01T14:21:23.062Z,94567.19
2023-02-01T14:23:58.946Z,94556.88
2023-02-01T14:26:44.289Z,94558.22
2023-02-01T14:29:20.864Z,94564.06
2023-02-01T14:32:03.859Z,94568.34
2023-02-01T14:34:46.092Z,94567.78
2023-02-01T14:37:37.387Z,94563.78
2023-02-01T14:40:21.022Z,94559.84
2023-02-01T14:42:50.892Z,94563.78
2023-02-01T14:45:23.402Z,94576.25
2023-02-01T14:47:52.096Z,94576.78
2023-02-01T14:50:28.087Z,94579.69
2023-02-01T14:53:13.244Z,94594.31
2023-02-01T14:55:49.415Z,94600.44
2023-02-01T14:58:29.046Z,94594.59
2023-02-01T15:01:00.225Z,94591.44
2023-02-01T15:03:42.360Z,94597.53
2023-02-01T15:06:24.782Z,94590.13
2023-02-01T15:08:55.826Z,94573.75
2023-02-01T15:11:22.758Z,94607.59
2023-02-01T15:13:53.604Z,94595.44
2023-02-01T15:16:23.116Z,94599.72
2023-02-01T15:18:50.176Z,94593.63
2023-02-01T15:21:28.444Z,94599.44
2023-02-01T15:24:12.772Z,94592.03
2023-02-01T15:26:39.541Z,94603.19
2023-02-01T15:29:06.267Z,94600.53
2023-02-01T15:31:39.556Z,94608.78
2023-02-01T15:34:06.402Z,94598.16
2023-02-01T15:36:34.692Z,94606.63
2023-02-01T15:39:26.883Z,94615.91
2023-02-01T15:41:58.988Z,94602.94
2023-02-01T15:44:38.686Z,94610.34
2023-02-01T15:47:21.562Z,94621.50
2023-02-01T15:49:52.982Z,94622.56
2023-02-01T15:52:23.463Z,94620.97
2023-02-01T15:54:55.094Z,94629.47
2023-02-01T15:57:31.813Z,94629.72
2023-02-01T16:00:06.504Z,94637.16
2023-02-01T16:02:45.097Z,94633.44
2023-02-01T16:05:30.635Z,94636.91
2023-02-01T16:08:05.407Z,94625.78
2023-02-01T16:10:38.995Z,94630.53
2023-02-01T16:13:05.643Z,94627.44
2023-02-01T16:15:32.306Z,94632.72
2023-02-01T16:17:59.015Z,94637.47
2023-02-01T16:20:25.726Z,94646.25
2023-02-01T16:22:52.408Z,94641.50
2023-02-01T16:25:19.345Z,94645.19
2023-02-01T16:27:46.040Z,94652.63
2023-02-01T16:30:12.961Z,94651.03
2023-02-01T16:32:39.829Z,94646.81
2023-02-01T16:35:24.132Z,94642.31
2023-02-01T16:37:50.987Z,94656.63
2023-02-01T16:40:20.007Z,94655.56
2023-02-01T16:42:48.897Z,94643.66
2023-02-01T16:45:15.543Z,94649.22
2023-02-01T16:47:55.459Z,94639.94
2023-02-01T16:50:25.370Z,94649.72
2023-02-01T16:52:54.131Z,94647.34
2023-02-01T16:55:25.207Z,94633.28
2023-02-01T16:57:52.423Z,94650.50
2023-02-01T17:00:25.785Z,94649.72
2023-02-01T17:02:54.194Z,94645.22
2023-02-01T17:05:21.076Z,94638.56
2023-02-01T17:07:47.841Z,94646.53
2023-02-01T17:10:34.155Z,94642.84
2023-02-01T17:13:02.060Z,94645.22
2023-02-01T17:15:32.460Z,94655.03
2023-02-01T17:18:02.717Z,94648.41
2023-02-01T17:20:33.015Z,94655.03
2023-02-01T17:23:00.145Z,94653.44
2023-02-01T17:25:28.688Z,94662.44
2023-02-01T17:27:55.447Z,94644.44
2023-02-01T17:30:22.196Z,94650.28
2023-02-01T17:32:49.010Z,94642.59
2023-02-01T17:35:21.140Z,94672.53
2023-02-01T17:37:49.079Z,94668.81
2023-02-01T17:40:16.563Z,94654.03
2023-02-01T17:42:43.250Z,94655.34
2023-02-01T17:45:31.629Z,94653.25
2023-02-01T17:47:58.422Z,94661.47
2023-02-01T17:50:28.289Z,94649.81
2023-02-01T17:52:54.960Z,94660.13
2023-02-01T17:55:25.572Z,94661.72
2023-02-01T17:57:52.713Z,94661.97
2023-02-01T18:00:20.276Z,94664.84
2023-02-01T18:02:47.052Z,94668.03
2023-02-01T18:05:24.522Z,94666.69
2023-02-01T18:07:51.410Z,94666.69
2023-02-01T18:10:18.729Z,94659.78
2023-02-01T18:12:46.216Z,94654.75
2023-02-01T18:15:25.201Z,94663.22
2023-02-01T18:17:52.377Z,94638.59
2023-02-01T18:20:24.915Z,94662.69
2023-02-01T18:22:51.838Z,94651.28
2023-02-01T18:25:23.026Z,94665.88
2023-02-01T18:27:54.808Z,94665.31
2023-02-01T18:30:23.517Z,94670.63
2023-02-01T18:32:50.396Z,94669.31
2023-02-01T18:35:20.998Z,94660.28
2023-02-01T18:37:49.139Z,94674.09
2023-02-01T18:40:21.257Z,94667.47
2023-02-01T18:42:48.312Z,94682.31
2023-02-01T18:45:23.196Z,94683.63
2023-02-01T18:47:50.912Z,94689.44
2023-02-01T18:50:18.272Z,94675.91
2023-02-01T18:52:44.900Z,94673.53
2023-02-01T18:55:11.758Z,94675.66
2023-02-01T18:57:39.877Z,94684.66
2023-02-01T19:00:10.327Z,94681.22
2023-02-01T19:02:39.028Z,94679.38
2023-02-01T19:05:08.205Z,94687.84
2023-02-01T19:07:36.041Z,94692.63
2023-02-01T19:10:06.279Z,94693.38
2023-02-01T19:12:34.176Z,94677.72
2023-02-01T19:15:01.065Z,94686.47
2023-02-01T19:17:30.886Z,94692.03
2023-02-01T19:20:00.426Z,94687.53
2023-02-01T19:22:27.464Z,94687.53
2023-02-01T19:24:54.792Z,94677.97
2023-02-01T19:27:21.914Z,94679.03
2023-02-01T19:29:48.795Z,94687.00
2023-02-01T19:32:16.021Z,94660.50
2023-02-01T19:34:42.677Z,94670.56
2023-02-01T19:37:10.154Z,94668.72
2023-02-01T19:39:41.137Z,94660.75
2023-02-01T19:42:08.259Z,94661.03
2023-02-01T19:44:35.228Z,94676.41
2023-02-01T19:47:02.000Z,94662.88
2023-02-01T19:49:28.676Z,94672.69
2023-02-01T19:51:55.431Z,94669.28
2023-02-01T19:54:22.075Z,94661.34
2023-02-01T19:56:50.746Z,94665.53
2023-02-01T19:59:18.773Z,94655.25
2023-02-01T20:01:46.563Z,94658.69
2023-02-01T20:04:15.190Z,94662.88
2023-02-01T20:06:48.765Z,94661.81
2023-02-01T20:09:20.289Z,94677.72
2023-02-01T20:11:47.723Z,94666.06
2023-02-01T20:14:14.431Z,94661.88
2023-02-01T20:16:41.823Z,94675.88
2023-02-01T20:19:09.872Z,94677.44
2023-02-01T20:21:38.043Z,94683.81
2023-02-01T20:24:06.062Z,94683.00
2023-02-01T20:26:34.640Z,94679.03
2023-02-01T20:29:02.497Z,94678.50
2023-02-01T20:31:30.077Z,94669.75
2023-02-01T20:33:58.274Z,94670.31
2023-02-01T20:36:26.803Z,94672.13
2023-02-01T20:38:54.655Z,94680.38
2023-02-01T20:41:22.330Z,94681.16
2023-02-01T20:43:49.026Z,94680.63
2023-02-01T20:46:16.090Z,94674.00
2023-02-01T20:48:47.009Z,94675.59
2023-02-01T20:51:15.417Z,94679.81
2023-02-01T20:53:43.352Z,94674.50
2023-02-01T20:56:13.878Z,94684.56
2023-02-01T20:58:41.276Z,94687.22
2023-02-01T21:01:08.189Z,94671.88
2023-02-01T21:03:35.567Z,94667.34
2023-02-01T21:06:04.594Z,94671.03
2023-02-01T21:08:32.271Z,94677.13
2023-02-01T21:11:00.439Z,94682.69
2023-02-01T21:13:30.378Z,94671.84
2023-02-01T21:15:58.105Z,94677.16
2023-02-01T21:18:25.060Z,94682.19
2023-02-01T21:20:51.813Z,94676.91
2023-02-01T21:23:18.728Z,94670.28
2023-02-01T21:25:46.010Z,94659.69
2023-02-01T21:28:13.442Z,94671.38
2023-02-01T21:30:40.492Z,94661.81
2023-02-01T21:33:07.955Z,94662.63
2023-02-01T21:35:34.697Z,94657.06
2023-02-01T21:38:01.324Z,94669.78
2023-02-01T21:40:27.947Z,94669.78
2023-02-01T21:42:54.617Z,94658.16
2023-02-01T21:45:21.277Z,94668.75
2023-02-01T21:47:49.617Z,94661.34
2023-02-01T21:50:19.266Z,94665.84
2023-02-01T21:52:46.601Z,94659.78
2023-02-01T21:55:14.158Z,94662.97
2023-02-01T21:57:41.180Z,94672.25
2023-02-01T22:00:08.913Z,94659.06
2023-02-01T22:02:36.158Z,94670.22
2023-02-01T22:05:05.300Z,94670.47
2023-02-01T22:07:34.828Z,94679.22
2023-02-01T22:10:02.304Z,94669.94
2023-02-01T22:12:29.053Z,94668.63
2023-02-01T22:14:55.819Z,94674.47
2023-02-01T22:17:22.470Z,94662.56
2023-02-01T22:19:49.243Z,94649.88
2023-02-01T22:22:16.928Z,94665.25
2023-02-01T22:24:43.686Z,94672.41
2023-02-01T22:27:13.834Z,94670.28
2023-02-01T22:29:42.566Z,94674.00
2023-02-01T22:32:09.717Z,94674.78
2023-02-01T22:34:36.635Z,94667.09
2023-02-01T22:37:03.310Z,94673.97
2023-02-01T22:39:30.166Z,94672.13
2023-02-01T22:41:56.794Z,94668.69
2023-02-01T22:44:23.937Z,94666.84
2023-02-01T22:46:51.028Z,94663.66
2023-02-01T22:49:17.813Z,94648.81
2023-02-01T22:51:44.771Z,94658.34
2023-02-01T22:54:21.451Z,94659.41
2023-02-01T22:56:49.026Z,94652.25
2023-02-01T22:59:16.562Z,94657.25
2023-02-01T23:01:44.601Z,94658.06
2023-02-01T23:04:13.807Z,94661.75
2023-02-01T23:06:40.714Z,94670.22
2023-02-01T23:09:15.464Z,94671.00
2023-02-01T23:11:42.623Z,94671.00
2023-02-01T23:14:10.580Z,94675.00
2023-02-01T23:16:38.089Z,94678.44
2023-02-01T23:19:05.491Z,94681.88
2023-02-01T23:21:32.155Z,94673.72
2023-02-01T23:24:00.600Z,94678.50
2023-02-01T23:26:30.462Z,94672.41
2023-02-01T23:28:58.506Z,94672.94
2023-02-01T23:31:30.824Z,94672.69
2023-02-01T23:33:59.692Z,94672.69
2023-02-01T23:36:27.776Z,94661.31
2023-02-01T23:38:55.088Z,94656.84
2023-02-01T23:41:22.983Z,94665.84
2023-02-01T23:43:59.554Z,94651.28
2023-02-01T23:46:32.721Z,94653.09
2023-02-01T23:49:00.790Z,94653.63
2023-02-01T23:51:28.601Z,94650.44
2023-02-01T23:53:56.083Z,94643.81
2023-02-01T23:56:34.376Z,94643.00
2023-02-01T23:59:06.740Z,94639.31
